createdAt,value
2018-08-25T00:04:49.806Z,1.30
2018-08-25T00:09:53.434Z,1.73
2018-08-25T00:14:56.976Z,2.33
2018-08-25T00:20:00.532Z,1.00
2018-08-25T00:25:04.206Z,1.83
2018-08-25T00:35:24.018Z,1.43
2018-08-25T00:40:27.494Z,1.40
2018-08-25T00:45:31.300Z,1.43
2018-08-25T00:50:34.880Z,1.70
2018-08-25T00:55:38.462Z,1.80
2018-08-25T01:00:42.321Z,1.83
2018-08-25T01:05:46.096Z,1.60
2018-08-25T01:10:49.671Z,2.03
2018-08-25T01:15:53.309Z,1.37
2018-08-25T01:20:57.270Z,2.10
2018-08-25T01:26:00.813Z,2.37
2018-08-25T01:31:04.319Z,1.67
2018-08-25T01:36:07.895Z,1.90
2018-08-25T01:41:11.432Z,1.47
2018-08-25T01:46:15.046Z,1.70
2018-08-25T01:51:18.550Z,1.30
2018-08-25T01:56:22.126Z,2.53
2018-08-25T02:01:29.831Z,1.70
2018-08-25T02:06:33.526Z,1.93
2018-08-25T02:11:37.171Z,1.50
2018-08-25T02:16:41.892Z,1.67
2018-08-25T02:21:45.636Z,1.60
2018-08-25T02:26:49.176Z,1.43
2018-08-25T02:31:52.896Z,1.77
2018-08-25T02:36:56.443Z,1.63
2018-08-25T02:42:00.560Z,2.17
2018-08-25T02:47:04.151Z,1.30
2018-08-25T02:52:07.629Z,1.23
2018-08-25T02:57:11.185Z,0.80
2018-08-25T03:02:14.775Z,1.43
2018-08-25T03:07:18.461Z,1.57
2018-08-25T03:12:21.957Z,1.20
2018-08-25T03:17:25.683Z,1.13
2018-08-25T03:22:29.251Z,1.20
2018-08-25T03:27:32.838Z,1.27
2018-08-25T03:32:36.453Z,1.33
2018-08-25T03:37:39.996Z,0.80
2018-08-25T03:42:43.600Z,1.27
2018-08-25T03:47:47.246Z,1.27
2018-08-25T03:52:50.725Z,1.73
2018-08-25T03:57:54.488Z,1.37
2018-08-25T04:02:58.976Z,1.53
2018-08-25T04:08:02.677Z,1.20
2018-08-25T04:13:07.625Z,1.60
2018-08-25T04:18:11.666Z,1.70
2018-08-25T04:23:15.341Z,1.63
2018-08-25T04:28:19.101Z,2.13
2018-08-25T04:33:23.331Z,1.80
2018-08-25T04:38:26.926Z,1.20
2018-08-25T04:43:30.490Z,1.70
2018-08-25T04:48:35.205Z,2.43
2018-08-25T04:53:38.955Z,1.37
2018-08-25T04:58:42.526Z,1.63
2018-08-25T05:03:46.164Z,2.17
2018-08-25T05:08:50.525Z,2.47
2018-08-25T05:13:54.656Z,2.57
2018-08-25T05:18:58.457Z,2.00
2018-08-25T05:24:02.834Z,2.33
2018-08-25T05:29:06.396Z,1.70
2018-08-25T05:34:09.880Z,2.40
2018-08-25T05:39:13.995Z,2.30
2018-08-25T05:44:17.773Z,2.03
2018-08-25T05:49:21.228Z,1.93
2018-08-25T05:54:24.798Z,2.57
2018-08-25T05:59:28.389Z,2.72
2018-08-25T06:04:31.963Z,2.83
2018-08-25T06:09:36.100Z,2.83
2018-08-25T06:14:40.344Z,3.30
2018-08-25T06:19:44.092Z,3.20
2018-08-25T06:24:47.632Z,3.77
2018-08-25T06:29:51.257Z,3.50
2018-08-25T06:34:54.647Z,3.07
2018-08-25T06:39:58.237Z,3.20
2018-08-25T06:45:01.993Z,2.53
2018-08-25T06:50:05.549Z,2.60
2018-08-25T06:55:09.017Z,3.47
2018-08-25T07:00:15.594Z,2.90
2018-08-25T07:05:19.421Z,3.50
2018-08-25T07:10:22.941Z,3.93
2018-08-25T07:15:26.411Z,4.87
2018-08-25T07:20:29.960Z,5.70
2018-08-25T07:25:33.496Z,6.40
2018-08-25T07:30:36.995Z,6.93
2018-08-25T07:35:40.461Z,6.43
2018-08-25T07:40:43.987Z,6.20
2018-08-25T07:45:49.106Z,5.83
2018-08-25T07:50:52.701Z,6.60
2018-08-25T07:55:56.142Z,6.33
2018-08-25T08:00:59.658Z,5.97
2018-08-25T08:06:03.169Z,5.27
2018-08-25T08:11:06.771Z,4.13
2018-08-25T08:16:10.450Z,4.03
2018-08-25T08:21:13.935Z,4.50
2018-08-25T08:26:17.643Z,4.70
2018-08-25T08:31:21.107Z,4.40
2018-08-25T08:36:24.662Z,4.13
2018-08-25T08:41:28.230Z,4.57
2018-08-25T08:46:35.181Z,6.60
2018-08-25T08:51:39.010Z,6.60
2018-08-25T08:56:42.518Z,6.67
2018-08-25T09:01:46.049Z,7.10
2018-08-25T09:06:49.606Z,6.87
2018-08-25T09:11:53.134Z,5.40
2018-08-25T09:16:56.632Z,4.93
2018-08-25T09:22:00.117Z,5.10
2018-08-25T09:27:03.626Z,4.70
2018-08-25T09:32:07.211Z,5.27
2018-08-25T09:37:10.786Z,5.37
2018-08-25T09:42:14.545Z,3.60
2018-08-25T09:47:18.268Z,3.73
2018-08-25T09:52:21.729Z,2.37
2018-08-25T09:57:25.307Z,3.57
2018-08-25T10:02:29.144Z,3.83
2018-08-25T10:07:32.790Z,4.00
2018-08-25T10:12:36.328Z,3.53
2018-08-25T10:17:39.841Z,2.80
2018-08-25T10:22:43.739Z,2.50
2018-08-25T10:27:47.293Z,2.93
2018-08-25T10:32:50.747Z,2.17
2018-08-25T10:37:54.277Z,2.20
2018-08-25T10:42:57.775Z,2.07
2018-08-25T10:48:01.572Z,2.37
2018-08-25T10:53:05.110Z,1.93
2018-08-25T10:58:08.633Z,2.03
2018-08-25T11:03:12.338Z,1.63
2018-08-25T11:08:16.062Z,1.33
2018-08-25T11:13:19.582Z,1.30
2018-08-25T11:18:23.117Z,1.33
2018-08-25T11:23:28.578Z,1.40
2018-08-25T11:28:32.299Z,1.57
2018-08-25T11:33:35.765Z,1.50
2018-08-25T11:38:39.546Z,0.90
2018-08-25T11:43:43.853Z,0.73
2018-08-25T11:48:47.600Z,0.80
2018-08-25T11:53:51.461Z,0.97
2018-08-25T11:58:54.997Z,1.17
2018-08-25T12:03:58.538Z,1.23
2018-08-25T12:09:02.312Z,0.90
2018-08-25T12:14:05.791Z,0.90
2018-08-25T12:19:09.310Z,0.80
2018-08-25T12:24:12.820Z,1.10
2018-08-25T12:29:16.409Z,0.90
2018-08-25T12:34:20.043Z,0.70
2018-08-25T12:39:23.647Z,1.23
2018-08-25T12:44:27.142Z,0.70
2018-08-25T12:49:30.660Z,0.77
2018-08-25T12:54:34.398Z,0.80
2018-08-25T12:59:37.948Z,0.80
2018-08-25T13:04:42.436Z,0.77
2018-08-25T13:09:45.994Z,1.00
2018-08-25T13:14:49.755Z,1.10
2018-08-25T13:19:53.238Z,1.10
2018-08-25T13:24:56.817Z,0.83
2018-08-25T13:30:00.254Z,1.13
2018-08-25T13:35:03.832Z,1.27
2018-08-25T13:40:07.438Z,1.60
2018-08-25T13:45:10.948Z,1.37
2018-08-25T13:50:14.430Z,1.80
2018-08-25T13:55:18.016Z,2.20
2018-08-25T14:00:33.598Z,2.20
2018-08-25T14:05:37.156Z,0.80
2018-08-25T14:10:40.622Z,0.70
2018-08-25T14:15:44.126Z,0.73
2018-08-25T14:20:47.647Z,0.50
2018-08-25T14:25:51.158Z,0.53
2018-08-25T14:30:54.644Z,0.53
2018-08-25T14:35:58.247Z,0.80
2018-08-25T14:41:01.995Z,0.90
2018-08-25T14:46:05.676Z,1.70
2018-08-25T14:51:09.129Z,1.20
2018-08-25T14:56:12.674Z,0.80
2018-08-25T15:01:18.208Z,1.03
2018-08-25T15:06:21.683Z,1.10
2018-08-25T15:11:25.529Z,1.30
2018-08-25T15:16:29.100Z,1.97
2018-08-25T15:21:32.725Z,1.33
2018-08-25T15:26:36.348Z,1.53
2018-08-25T15:31:39.892Z,1.60
2018-08-25T15:36:43.487Z,1.20
2018-08-25T15:41:47.016Z,1.87
2018-08-25T15:46:50.488Z,1.30
2018-08-25T15:51:54.130Z,1.43
2018-08-25T15:56:57.521Z,1.87
2018-08-25T16:02:01.484Z,2.00
2018-08-25T16:07:05.394Z,1.90
2018-08-25T16:12:09.048Z,1.67
2018-08-25T16:17:12.581Z,1.70
2018-08-25T16:22:16.690Z,1.60
2018-08-25T16:27:20.321Z,1.47
2018-08-25T16:32:23.866Z,1.30
2018-08-25T16:37:27.386Z,1.07
2018-08-25T16:42:30.958Z,1.40
2018-08-25T16:47:34.477Z,1.70
2018-08-25T16:52:38.017Z,1.90
2018-08-25T16:57:41.864Z,1.33
2018-08-25T17:02:45.430Z,1.97
2018-08-25T17:07:49.041Z,1.27
2018-08-25T17:12:52.576Z,0.90
2018-08-25T17:17:56.214Z,1.20
2018-08-25T17:22:59.861Z,0.70
2018-08-25T17:28:03.358Z,0.60
2018-08-25T17:33:07.177Z,0.60
2018-08-25T17:38:10.694Z,1.20
2018-08-25T17:43:14.443Z,0.83
2018-08-25T17:48:17.966Z,0.70
2018-08-25T17:53:21.711Z,1.00
2018-08-25T17:58:25.215Z,0.80
2018-08-25T18:03:28.744Z,0.70
2018-08-25T18:08:32.270Z,0.60
2018-08-25T18:13:35.810Z,0.80
2018-08-25T18:18:39.341Z,0.50
2018-08-25T18:23:43.309Z,0.80
2018-08-25T18:28:46.862Z,0.80
2018-08-25T18:33:50.530Z,0.85
2018-08-25T18:38:55.707Z,0.73
2018-08-25T18:43:59.293Z,1.10
2018-08-25T18:49:02.851Z,0.83
2018-08-25T18:54:06.449Z,0.80
2018-08-25T18:59:10.060Z,0.67
2018-08-25T19:04:13.736Z,0.87
2018-08-25T19:09:17.297Z,0.80
2018-08-25T19:14:20.963Z,0.90
2018-08-25T19:19:24.522Z,0.90
2018-08-25T19:24:28.205Z,0.80
2018-08-25T19:29:31.669Z,0.93
2018-08-25T19:34:35.269Z,0.80
2018-08-25T19:39:39.687Z,0.87
2018-08-25T19:44:43.415Z,0.83
2018-08-25T19:49:47.156Z,0.50
2018-08-25T19:54:50.887Z,0.90
2018-08-25T19:59:54.435Z,0.83
2018-08-25T20:04:57.985Z,1.57
2018-08-25T20:10:01.553Z,1.07
2018-08-25T20:15:05.311Z,0.70
2018-08-25T20:20:08.892Z,0.60
2018-08-25T20:25:12.471Z,0.83
2018-08-25T20:30:17.233Z,0.70
2018-08-25T20:35:20.736Z,0.80
2018-08-25T20:40:24.577Z,0.97
2018-08-25T20:45:28.371Z,0.80
2018-08-25T20:50:31.871Z,1.53
2018-08-25T20:55:35.431Z,1.07
2018-08-25T21:00:38.962Z,1.10
2018-08-25T21:05:42.482Z,0.73
2018-08-25T21:10:46.033Z,1.00
2018-08-25T21:15:56.219Z,0.97
2018-08-25T21:20:59.753Z,0.90
2018-08-25T21:26:03.343Z,0.80
2018-08-25T21:31:06.855Z,1.40
2018-08-25T21:36:10.399Z,0.70
2018-08-25T21:41:13.985Z,0.80
2018-08-25T21:46:17.520Z,0.80
2018-08-25T21:51:21.337Z,0.73
2018-08-25T21:56:24.884Z,0.53
2018-08-25T22:01:32.565Z,1.53
2018-08-25T22:06:36.103Z,0.83
2018-08-25T22:11:39.907Z,0.93
2018-08-25T22:16:43.584Z,1.20
2018-08-25T22:21:47.140Z,1.10
2018-08-25T22:26:50.901Z,0.80
2018-08-25T22:31:54.461Z,1.10
2018-08-25T22:36:57.941Z,0.93
2018-08-25T22:42:01.669Z,1.10
2018-08-25T22:47:05.291Z,0.70
2018-08-25T22:52:08.956Z,1.07
2018-08-25T22:57:13.026Z,1.07
2018-08-25T23:02:16.613Z,1.43
2018-08-25T23:07:20.514Z,1.33
2018-08-25T23:12:24.245Z,1.37
2018-08-25T23:17:28.103Z,1.40
2018-08-25T23:22:31.616Z,1.80
2018-08-25T23:27:35.196Z,1.77
2018-08-25T23:32:38.763Z,1.77
2018-08-25T23:37:42.325Z,1.80
2018-08-25T23:42:45.850Z,2.03
2018-08-25T23:47:49.376Z,2.33
2018-08-25T23:52:52.891Z,1.67
2018-08-25T23:57:56.641Z,1.60
